createdAt,value
2023-11-23T00:00:41.950Z,1015.64
2023-11-23T00:01:42.004Z,1015.45
2023-11-23T00:02:42.043Z,1015.46
2023-11-23T00:03:41.925Z,1015.26
2023-11-23T00:04:41.900Z,1015.20
2023-11-23T00:05:41.905Z,1015.23
2023-11-23T00:06:41.877Z,1015.20
2023-11-23T00:07:41.866Z,1015.16
2023-11-23T00:08:41.887Z,1015.13
2023-11-23T00:09:41.833Z,1015.05
2023-11-23T00:10:41.811Z,1014.99
2023-11-23T00:11:41.816Z,1014.95
2023-11-23T00:12:41.874Z,1014.95
2023-11-23T00:13:41.768Z,1014.87
2023-11-23T00:14:41.818Z,1014.70
2023-11-23T00:15:41.744Z,1014.66
2023-11-23T00:16:41.750Z,1014.60
2023-11-23T00:17:41.769Z,1014.51
2023-11-23T00:18:41.774Z,1014.52
2023-11-23T00:19:41.685Z,1014.49
2023-11-23T00:20:41.688Z,1014.56
2023-11-23T00:21:41.663Z,1014.62
2023-11-23T00:22:41.644Z,1014.41
2023-11-23T00:23:41.657Z,1014.48
2023-11-23T00:24:41.617Z,1014.46
2023-11-23T00:25:41.610Z,1014.42
2023-11-23T00:26:41.606Z,1014.42
2023-11-23T00:27:41.578Z,1014.32
2023-11-23T00:28:41.563Z,1014.27
2023-11-23T00:29:41.566Z,1014.38
2023-11-23T00:30:41.536Z,1014.33
2023-11-23T00:31:41.519Z,1014.38
2023-11-23T00:32:41.647Z,1014.29
2023-11-23T00:33:41.624Z,1014.31
2023-11-23T00:34:41.498Z,1014.29
2023-11-23T00:35:41.502Z,1014.27
2023-11-23T00:36:41.450Z,1014.33
2023-11-23T00:37:41.437Z,1014.32
2023-11-23T00:38:41.459Z,1014.29
2023-11-23T00:39:41.466Z,1014.28
2023-11-23T00:40:41.402Z,1014.31
2023-11-23T00:41:41.396Z,1014.18
2023-11-23T00:42:41.368Z,1014.13
2023-11-23T00:43:41.352Z,1014.08
2023-11-23T00:44:41.364Z,1013.98
2023-11-23T00:45:41.341Z,1014.02
2023-11-23T00:46:41.378Z,1014.04
2023-11-23T00:47:41.384Z,1014.08
2023-11-23T00:48:41.407Z,1014.02
2023-11-23T00:49:41.275Z,1014.08
2023-11-23T00:50:41.295Z,1014.00
2023-11-23T00:51:41.253Z,1014.09
2023-11-23T00:52:41.237Z,1014.03
2023-11-23T00:53:41.249Z,1014.01
2023-11-23T00:54:41.205Z,1013.88
2023-11-23T00:55:41.189Z,1013.88
2023-11-23T00:56:41.188Z,1013.81
2023-11-23T00:57:41.181Z,1013.89
2023-11-23T00:58:41.157Z,1013.88
2023-11-23T00:59:41.143Z,1013.88
2023-11-23T01:00:41.163Z,1013.80
2023-11-23T01:01:41.180Z,1013.78
2023-11-23T01:02:41.237Z,1013.74
2023-11-23T01:03:41.176Z,1013.95
2023-11-23T01:04:41.084Z,1013.98
2023-11-23T01:05:41.098Z,1013.91
2023-11-23T01:06:41.050Z,1013.97
2023-11-23T01:07:41.026Z,1014.01
2023-11-23T01:08:41.039Z,1014.03
2023-11-23T01:09:41.004Z,1014.10
2023-11-23T01:10:40.994Z,1014.03
2023-11-23T01:11:41.043Z,1013.85
2023-11-23T01:12:40.966Z,1013.72
2023-11-23T01:13:40.964Z,1013.75
2023-11-23T01:14:40.972Z,1013.67
2023-11-23T01:15:40.924Z,1013.64
2023-11-23T01:16:40.944Z,1013.62
2023-11-23T01:17:40.978Z,1013.66
2023-11-23T01:18:40.948Z,1013.67
2023-11-23T01:19:40.877Z,1013.65
2023-11-23T01:20:40.885Z,1013.47
2023-11-23T01:21:40.852Z,1013.37
2023-11-23T01:22:40.828Z,1013.45
2023-11-23T01:23:40.845Z,1013.45
2023-11-23T01:24:40.798Z,1013.50
2023-11-23T01:25:40.799Z,1013.41
2023-11-23T01:26:40.818Z,1013.39
2023-11-23T01:27:40.757Z,1013.41
2023-11-23T01:28:40.746Z,1013.28
2023-11-23T01:29:40.744Z,1013.29
2023-11-23T01:30:40.720Z,1013.27
2023-11-23T01:31:40.704Z,1013.26
2023-11-23T01:32:40.827Z,1013.33
2023-11-23T01:33:40.718Z,1013.32
2023-11-23T01:34:40.664Z,1013.33
2023-11-23T01:35:40.690Z,1013.30
2023-11-23T01:36:40.645Z,1013.26
2023-11-23T01:37:40.623Z,1013.31
2023-11-23T01:38:40.651Z,1013.35
2023-11-23T01:39:40.630Z,1013.35
2023-11-23T01:40:40.587Z,1013.18
2023-11-23T01:41:40.568Z,1013.23
2023-11-23T01:42:40.556Z,1013.20
2023-11-23T01:43:40.545Z,1013.18
2023-11-23T01:44:40.548Z,1013.25
2023-11-23T01:45:40.540Z,1013.22
2023-11-23T01:46:40.509Z,1013.20
2023-11-23T01:47:40.530Z,1013.19
2023-11-23T01:48:40.538Z,1013.20
2023-11-23T01:49:40.477Z,1013.13
2023-11-23T01:50:40.476Z,1013.16
2023-11-23T01:51:40.437Z,1013.23
2023-11-23T01:52:40.421Z,1013.21
2023-11-23T01:53:40.429Z,1013.16
2023-11-23T01:54:40.400Z,1013.15
2023-11-23T01:55:40.385Z,1013.13
2023-11-23T01:56:40.389Z,1013.18
2023-11-23T01:57:40.380Z,1013.13
2023-11-23T01:58:40.345Z,1013.00
2023-11-23T01:59:40.345Z,1012.99
2023-11-23T02:00:40.323Z,1013.03
2023-11-23T02:01:40.324Z,1013.00
2023-11-23T02:02:40.353Z,1012.95
2023-11-23T02:03:40.343Z,1012.95
2023-11-23T02:04:40.266Z,1013.01
2023-11-23T02:05:40.317Z,1012.98
2023-11-23T02:06:40.235Z,1012.93
2023-11-23T02:07:40.395Z,1012.97
2023-11-23T02:08:40.277Z,1012.97
2023-11-23T02:09:40.195Z,1012.88
2023-11-23T02:10:40.197Z,1012.72
2023-11-23T02:11:40.195Z,1012.72
2023-11-23T02:12:40.152Z,1012.70
2023-11-23T02:13:40.144Z,1012.73
2023-11-23T02:14:40.149Z,1012.76
2023-11-23T02:15:40.532Z,1012.73
2023-11-23T02:16:40.104Z,1012.72
2023-11-23T02:17:40.340Z,1012.69
2023-11-23T02:18:40.121Z,1012.63
2023-11-23T02:19:40.067Z,1012.61
2023-11-23T02:20:40.109Z,1012.69
2023-11-23T02:21:40.038Z,1012.58
2023-11-23T02:22:40.026Z,1012.57
2023-11-23T02:23:40.123Z,1012.58
2023-11-23T02:24:40.002Z,1012.62
2023-11-23T02:25:39.997Z,1012.62
2023-11-23T02:26:40.073Z,1012.57
2023-11-23T02:27:39.987Z,1012.58
2023-11-23T02:28:40.337Z,1012.61
2023-11-23T02:29:40.100Z,1012.55
2023-11-23T02:30:39.925Z,1012.55
2023-11-23T02:31:39.919Z,1012.56
2023-11-23T02:32:39.915Z,1012.57
2023-11-23T02:33:39.932Z,1012.57
2023-11-23T02:34:39.919Z,1012.58
2023-11-23T02:35:40.089Z,1012.50
2023-11-23T02:36:39.850Z,1012.52
2023-11-23T02:37:39.839Z,1012.53
2023-11-23T02:38:39.820Z,1012.53
2023-11-23T02:39:39.807Z,1012.48
2023-11-23T02:40:39.790Z,1012.55
2023-11-23T02:41:39.777Z,1012.36
2023-11-23T02:42:41.867Z,1012.46
2023-11-23T02:43:39.818Z,1012.45
2023-11-23T02:44:39.844Z,1012.50
2023-11-23T02:45:39.735Z,1012.41
2023-11-23T02:46:39.743Z,1012.39
2023-11-23T02:47:39.836Z,1012.35
2023-11-23T02:48:39.800Z,1012.33
2023-11-23T02:49:39.716Z,1012.31
2023-11-23T02:50:39.775Z,1012.24
2023-11-23T02:51:39.789Z,1012.19
2023-11-23T02:52:39.793Z,1012.24
2023-11-23T02:53:39.620Z,1012.16
2023-11-23T02:54:39.623Z,1012.21
2023-11-23T02:55:39.613Z,1012.22
2023-11-23T02:56:39.586Z,1012.21
2023-11-23T02:57:39.591Z,1012.09
2023-11-23T02:58:39.559Z,1012.10
2023-11-23T02:59:39.560Z,1012.04
2023-11-23T03:00:39.532Z,1012.03
2023-11-23T03:01:39.599Z,1012.15
2023-11-23T03:02:39.580Z,1012.15
2023-11-23T03:03:39.654Z,1012.13
2023-11-23T03:04:39.519Z,1012.17
2023-11-23T03:05:39.475Z,1012.21
2023-11-23T03:06:39.464Z,1012.16
2023-11-23T03:07:39.447Z,1012.12
2023-11-23T03:08:39.453Z,1012.13
2023-11-23T03:09:39.420Z,1012.07
2023-11-23T03:10:39.412Z,1012.03
2023-11-23T03:11:39.400Z,1011.98
2023-11-23T03:12:39.385Z,1012.01
2023-11-23T03:13:39.368Z,1012.01
2023-11-23T03:14:39.362Z,1012.02
2023-11-23T03:15:39.348Z,1011.99
2023-11-23T03:16:39.335Z,1011.99
2023-11-23T03:17:39.380Z,1011.94
2023-11-23T03:18:39.404Z,1011.92
2023-11-23T03:19:39.302Z,1011.86
2023-11-23T03:20:39.281Z,1011.85
2023-11-23T03:21:39.439Z,1011.90
2023-11-23T03:22:39.283Z,1011.83
2023-11-23T03:23:39.238Z,1011.82
2023-11-23T03:24:39.241Z,1011.92
2023-11-23T03:25:39.223Z,1011.87
2023-11-23T03:26:39.208Z,1011.88
2023-11-23T03:27:39.201Z,1011.84
2023-11-23T03:28:39.182Z,1011.87
2023-11-23T03:29:39.170Z,1011.79
2023-11-23T03:30:39.156Z,1011.80
2023-11-23T03:31:39.151Z,1011.77
2023-11-23T03:32:39.212Z,1011.82
2023-11-23T03:33:39.160Z,1011.72
2023-11-23T03:34:39.198Z,1011.70
2023-11-23T03:35:39.100Z,1011.81
2023-11-23T03:36:39.082Z,1011.85
2023-11-23T03:37:39.104Z,1011.78
2023-11-23T03:38:39.062Z,1011.73
2023-11-23T03:39:39.039Z,1011.70
2023-11-23T03:40:39.036Z,1011.68
2023-11-23T03:41:39.022Z,1011.62
2023-11-23T03:42:39.012Z,1011.58
2023-11-23T03:43:39.010Z,1011.54
2023-11-23T03:44:38.994Z,1011.59
2023-11-23T03:45:39.002Z,1011.52
2023-11-23T03:46:38.959Z,1011.50
2023-11-23T03:47:39.003Z,1011.52
2023-11-23T03:48:38.993Z,1011.45
2023-11-23T03:49:38.927Z,1011.61
2023-11-23T03:50:38.906Z,1011.52
2023-11-23T03:51:38.893Z,1011.55
2023-11-23T03:52:38.898Z,1011.56
2023-11-23T03:53:38.865Z,1011.49
2023-11-23T03:54:38.858Z,1011.49
2023-11-23T03:55:38.863Z,1011.46
2023-11-23T03:56:38.977Z,1011.50
2023-11-23T03:57:38.836Z,1011.44
2023-11-23T03:58:38.807Z,1011.49
2023-11-23T03:59:38.797Z,1011.38
2023-11-23T04:00:38.786Z,1011.39
2023-11-23T04:01:38.845Z,1011.40
2023-11-23T04:02:38.811Z,1011.33
2023-11-23T04:03:38.764Z,1011.30
2023-11-23T04:04:38.742Z,1011.25
2023-11-23T04:05:38.734Z,1011.26
2023-11-23T04:06:38.724Z,1011.23
2023-11-23T04:07:38.700Z,1011.20
2023-11-23T04:08:38.685Z,1011.26
2023-11-23T04:09:38.673Z,1011.28
2023-11-23T04:10:38.668Z,1011.21
2023-11-23T04:11:38.659Z,1011.25
2023-11-23T04:12:38.656Z,1011.23
2023-11-23T04:13:38.715Z,1011.25
2023-11-23T04:14:38.622Z,1011.34
2023-11-23T04:15:38.605Z,1011.25
2023-11-23T04:16:38.616Z,1011.26
2023-11-23T04:17:38.606Z,1011.21
2023-11-23T04:18:38.631Z,1011.18
2023-11-23T04:19:38.552Z,1011.18
2023-11-23T04:20:38.550Z,1011.15
2023-11-23T04:21:38.545Z,1011.09
2023-11-23T04:22:38.527Z,1011.08
2023-11-23T04:23:38.503Z,1011.11
2023-11-23T04:24:38.492Z,1011.10
2023-11-23T04:25:38.486Z,1011.08
2023-11-23T04:26:38.468Z,1011.08
2023-11-23T04:27:38.455Z,1011.09
2023-11-23T04:28:38.441Z,1011.04
2023-11-23T04:29:38.438Z,1011.03
2023-11-23T04:30:38.423Z,1011.11
2023-11-23T04:31:38.417Z,1011.08
2023-11-23T04:32:38.414Z,1011.02
2023-11-23T04:33:38.539Z,1011.00
2023-11-23T04:34:38.398Z,1010.93
2023-11-23T04:35:38.359Z,1010.97
2023-11-23T04:36:38.354Z,1010.94
2023-11-23T04:37:38.335Z,1010.91
2023-11-23T04:38:38.322Z,1010.89
2023-11-23T04:39:38.313Z,1010.85
2023-11-23T04:40:38.300Z,1010.88
2023-11-23T04:41:38.295Z,1010.91
2023-11-23T04:42:38.276Z,1010.88
2023-11-23T04:43:38.289Z,1010.93
2023-11-23T04:44:38.249Z,1010.90
2023-11-23T04:45:38.243Z,1010.96
2023-11-23T04:46:38.258Z,1010.98
2023-11-23T04:47:38.313Z,1010.97
2023-11-23T04:48:38.287Z,1010.99
2023-11-23T04:49:38.197Z,1010.99
2023-11-23T04:50:38.266Z,1010.94
2023-11-23T04:51:38.167Z,1010.91
2023-11-23T04:52:38.173Z,1010.85
2023-11-23T04:53:38.142Z,1010.86
2023-11-23T04:54:38.140Z,1010.92
2023-11-23T04:55:38.118Z,1010.86
2023-11-23T04:56:38.110Z,1010.71
2023-11-23T04:57:38.092Z,1010.73
2023-11-23T04:58:38.090Z,1010.77
2023-11-23T04:59:38.071Z,1010.78
2023-11-23T05:00:38.204Z,1010.72
2023-11-23T05:01:38.075Z,1010.73
2023-11-23T05:02:38.045Z,1010.74
2023-11-23T05:03:38.092Z,1010.76
2023-11-23T05:04:38.011Z,1010.74
2023-11-23T05:05:37.996Z,1010.71
2023-11-23T05:06:37.988Z,1010.74
2023-11-23T05:07:37.976Z,1010.76
2023-11-23T05:08:38.033Z,1010.64
2023-11-23T05:09:37.957Z,1010.66
2023-11-23T05:10:37.935Z,1010.61
2023-11-23T05:11:37.926Z,1010.68
2023-11-23T05:12:37.919Z,1010.66
2023-11-23T05:13:37.912Z,1010.67
2023-11-23T05:14:37.893Z,1010.70
2023-11-23T05:15:37.887Z,1010.71
2023-11-23T05:16:37.976Z,1010.65
2023-11-23T05:17:37.872Z,1010.70
2023-11-23T05:18:37.866Z,1010.70
2023-11-23T05:19:42.712Z,1010.69
2023-11-23T05:20:37.838Z,1010.70
2023-11-23T05:21:37.809Z,1010.60
2023-11-23T05:22:37.793Z,1010.63
2023-11-23T05:23:37.782Z,1010.60
2023-11-23T05:24:37.842Z,1010.63
2023-11-23T05:25:37.760Z,1010.65
2023-11-23T05:26:37.745Z,1010.65
2023-11-23T05:27:37.735Z,1010.67
2023-11-23T05:28:37.728Z,1010.66
2023-11-23T05:29:37.720Z,1010.66
2023-11-23T05:30:37.962Z,1010.67
2023-11-23T05:31:37.693Z,1010.69
2023-11-23T05:32:37.689Z,1010.68
2023-11-23T05:33:37.739Z,1010.72
2023-11-23T05:34:37.653Z,1010.70
2023-11-23T05:35:37.641Z,1010.67
2023-11-23T05:36:37.625Z,1010.69
2023-11-23T05:37:37.622Z,1010.64
2023-11-23T05:38:37.612Z,1010.60
2023-11-23T05:39:40.648Z,1010.51
2023-11-23T05:40:37.582Z,1010.55
2023-11-23T05:41:37.570Z,1010.53
2023-11-23T05:42:37.888Z,1010.49
2023-11-23T05:43:37.546Z,1010.49
2023-11-23T05:44:37.536Z,1010.43
2023-11-23T05:45:37.528Z,1010.42
2023-11-23T05:46:37.568Z,1010.44
2023-11-23T05:47:37.517Z,1010.41
2023-11-23T05:48:37.528Z,1010.34
2023-11-23T05:49:37.478Z,1010.35
2023-11-23T05:50:37.467Z,1010.39
2023-11-23T05:51:37.455Z,1010.40
2023-11-23T05:52:37.442Z,1010.37
2023-11-23T05:53:37.433Z,1010.21
2023-11-23T05:54:37.415Z,1010.24
2023-11-23T05:55:37.409Z,1010.20
2023-11-23T05:56:37.402Z,1010.24
2023-11-23T05:57:37.396Z,1010.23
2023-11-23T05:58:37.378Z,1010.19
2023-11-23T05:59:37.359Z,1010.14
2023-11-23T06:00:37.350Z,1010.21
2023-11-23T06:01:37.334Z,1010.15
2023-11-23T06:02:37.392Z,1010.17
2023-11-23T06:03:37.432Z,1010.16
2023-11-23T06:04:37.531Z,1010.15
2023-11-23T06:05:37.398Z,1010.11
2023-11-23T06:06:37.276Z,1010.14
2023-11-23T06:07:37.272Z,1010.12
2023-11-23T06:08:37.254Z,1010.10
2023-11-23T06:09:37.244Z,1010.13
2023-11-23T06:10:37.229Z,1010.12
2023-11-23T06:11:37.220Z,1010.17
2023-11-23T06:12:37.205Z,1010.15
2023-11-23T06:13:37.194Z,1010.17
2023-11-23T06:14:37.198Z,1010.15
2023-11-23T06:15:37.181Z,1010.18
2023-11-23T06:16:37.165Z,1010.20
2023-11-23T06:17:37.218Z,1010.20
2023-11-23T06:18:37.186Z,1010.18
2023-11-23T06:19:37.136Z,1010.21
2023-11-23T06:20:37.130Z,1010.19
2023-11-23T06:21:37.108Z,1010.22
2023-11-23T06:22:37.104Z,1010.18
2023-11-23T06:23:37.082Z,1010.20
2023-11-23T06:24:37.072Z,1010.21
2023-11-23T06:25:37.065Z,1010.21
2023-11-23T06:26:37.050Z,1010.15
2023-11-23T06:27:37.034Z,1010.16
2023-11-23T06:28:37.021Z,1010.19
2023-11-23T06:29:37.045Z,1010.15
2023-11-23T06:30:37.001Z,1010.14
2023-11-23T06:31:37.064Z,1010.13
2023-11-23T06:32:36.984Z,1010.10
2023-11-23T06:33:37.002Z,1010.02
2023-11-23T06:34:39.764Z,1009.96
2023-11-23T06:35:36.969Z,1009.98
2023-11-23T06:36:36.939Z,1009.97
2023-11-23T06:37:36.930Z,1009.92
2023-11-23T06:38:36.912Z,1009.91
2023-11-23T06:39:36.912Z,1009.95
2023-11-23T06:40:36.907Z,1009.93
2023-11-23T06:41:36.873Z,1009.94
2023-11-23T06:42:39.195Z,1009.91
2023-11-23T06:43:36.929Z,1009.86
2023-11-23T06:44:36.849Z,1009.84
2023-11-23T06:45:36.848Z,1009.83
2023-11-23T06:46:36.851Z,1009.84
2023-11-23T06:47:36.861Z,1009.73
2023-11-23T06:48:36.886Z,1009.73
2023-11-23T06:49:36.787Z,1009.79
2023-11-23T06:50:36.775Z,1009.78
2023-11-23T06:51:36.770Z,1009.72
2023-11-23T06:52:36.748Z,1009.70
2023-11-23T06:53:36.738Z,1009.68
2023-11-23T06:54:36.727Z,1009.61
2023-11-23T06:55:36.714Z,1009.57
2023-11-23T06:56:36.703Z,1009.56
2023-11-23T06:57:36.691Z,1009.53
2023-11-23T06:58:36.682Z,1009.49
2023-11-23T06:59:36.675Z,1009.54
2023-11-23T07:00:36.839Z,1009.55
2023-11-23T07:01:36.674Z,1009.45
2023-11-23T07:02:36.737Z,1009.42
2023-11-23T07:03:36.979Z,1009.50
2023-11-23T07:04:36.706Z,1009.43
2023-11-23T07:05:36.602Z,1009.50
2023-11-23T07:06:36.596Z,1009.43
2023-11-23T07:07:36.588Z,1009.44
2023-11-23T07:08:36.566Z,1009.48
2023-11-23T07:09:36.597Z,1009.42
2023-11-23T07:10:36.556Z,1009.43
2023-11-23T07:11:36.539Z,1009.39
2023-11-23T07:12:36.526Z,1009.36
2023-11-23T07:13:36.594Z,1009.25
2023-11-23T07:14:36.531Z,1009.33
2023-11-23T07:15:36.580Z,1009.29
2023-11-23T07:16:36.508Z,1009.09
2023-11-23T07:17:36.514Z,1009.19
2023-11-23T07:18:36.523Z,1009.27
2023-11-23T07:19:36.442Z,1009.29
2023-11-23T07:20:36.441Z,1009.16
2023-11-23T07:21:36.455Z,1009.29
2023-11-23T07:22:36.421Z,1009.15
2023-11-23T07:23:36.398Z,1009.24
2023-11-23T07:24:36.394Z,1009.19
2023-11-23T07:25:36.385Z,1009.14
2023-11-23T07:26:36.370Z,1009.02
2023-11-23T07:27:36.353Z,1008.98
2023-11-23T07:28:36.347Z,1009.09
2023-11-23T07:29:36.343Z,1009.16
2023-11-23T07:30:36.372Z,1009.13
2023-11-23T07:31:36.306Z,1009.20
2023-11-23T07:32:36.528Z,1009.04
2023-11-23T07:33:36.317Z,1008.99
2023-11-23T07:34:36.277Z,1008.99
2023-11-23T07:35:36.280Z,1008.98
2023-11-23T07:36:36.296Z,1009.02
2023-11-23T07:37:36.250Z,1009.08
2023-11-23T07:38:36.250Z,1009.08
2023-11-23T07:39:36.248Z,1009.15
2023-11-23T07:40:36.212Z,1009.01
2023-11-23T07:41:36.202Z,1008.94
2023-11-23T07:42:36.216Z,1008.98
2023-11-23T07:43:36.197Z,1008.97
2023-11-23T07:44:36.162Z,1008.93
2023-11-23T07:45:36.188Z,1008.98
2023-11-23T07:46:36.177Z,1008.95
2023-11-23T07:47:36.144Z,1008.91
2023-11-23T07:48:36.145Z,1008.90
2023-11-23T07:49:36.124Z,1008.92
2023-11-23T07:50:36.106Z,1008.85
2023-11-23T07:51:36.198Z,1008.90
2023-11-23T07:52:36.079Z,1008.93
2023-11-23T07:53:36.067Z,1008.93
2023-11-23T07:54:36.088Z,1008.88
2023-11-23T07:55:36.040Z,1008.87
2023-11-23T07:56:36.055Z,1008.84
2023-11-23T07:57:36.069Z,1008.85
2023-11-23T07:58:36.014Z,1008.81
2023-11-23T07:59:36.054Z,1008.80
2023-11-23T08:00:36.023Z,1008.78
2023-11-23T08:01:35.992Z,1008.71
2023-11-23T08:02:35.967Z,1008.79
2023-11-23T08:03:36.048Z,1008.75
2023-11-23T08:04:35.972Z,1008.73
2023-11-23T08:05:35.948Z,1008.60
2023-11-23T08:06:35.973Z,1008.64
2023-11-23T08:07:35.916Z,1008.71
2023-11-23T08:08:35.897Z,1008.67
2023-11-23T08:09:36.003Z,1008.70
2023-11-23T08:10:35.888Z,1008.68
2023-11-23T08:11:35.867Z,1008.61
2023-11-23T08:12:35.862Z,1008.59
2023-11-23T08:13:35.842Z,1008.58
2023-11-23T08:14:35.868Z,1008.56
2023-11-23T08:15:35.919Z,1008.52
2023-11-23T08:16:35.826Z,1008.62
2023-11-23T08:17:36.042Z,1008.52
2023-11-23T08:18:40.502Z,1008.55
2023-11-23T08:19:35.776Z,1008.41
2023-11-23T08:20:35.817Z,1008.51
2023-11-23T08:21:35.762Z,1008.42
2023-11-23T08:22:35.740Z,1008.39
2023-11-23T08:23:35.725Z,1008.43
2023-11-23T08:24:35.737Z,1008.34
2023-11-23T08:25:35.711Z,1008.37
2023-11-23T08:26:35.704Z,1008.25
2023-11-23T08:27:37.154Z,1008.28
2023-11-23T08:28:35.681Z,1008.22
2023-11-23T08:29:35.675Z,1008.30
2023-11-23T08:30:35.762Z,1008.26
2023-11-23T08:31:35.715Z,1008.24
2023-11-23T08:32:35.663Z,1008.27
2023-11-23T08:33:35.641Z,1008.28
2023-11-23T08:34:35.606Z,1008.23
2023-11-23T08:35:35.597Z,1008.22
2023-11-23T08:36:35.610Z,1008.15
2023-11-23T08:37:35.575Z,1008.16
2023-11-23T08:38:35.578Z,1008.12
2023-11-23T08:39:35.583Z,1008.20
2023-11-23T08:40:35.545Z,1008.10
2023-11-23T08:41:35.534Z,1008.17
2023-11-23T08:42:35.549Z,1008.11
2023-11-23T08:43:35.508Z,1008.02
2023-11-23T08:44:35.498Z,1008.05
2023-11-23T08:45:35.497Z,1008.03
2023-11-23T08:46:35.565Z,1008.02
2023-11-23T08:47:35.468Z,1007.92
2023-11-23T08:48:35.476Z,1007.98
2023-11-23T08:49:35.459Z,1007.99
2023-11-23T08:50:35.436Z,1008.00
2023-11-23T08:51:35.463Z,1007.99
2023-11-23T08:52:35.409Z,1007.98
2023-11-23T08:53:35.404Z,1008.02
2023-11-23T08:54:35.412Z,1007.95
2023-11-23T08:55:35.376Z,1008.02
2023-11-23T08:56:35.389Z,1007.99
2023-11-23T08:57:35.381Z,1007.91
2023-11-23T08:58:35.363Z,1007.89
2023-11-23T08:59:35.338Z,1007.81
2023-11-23T09:00:35.379Z,1007.83
2023-11-23T09:01:35.416Z,1007.87
2023-11-23T09:02:35.333Z,1007.78
2023-11-23T09:03:35.396Z,1007.78
2023-11-23T09:04:43.017Z,1007.77
2023-11-23T09:05:35.313Z,1007.74
2023-11-23T09:06:35.284Z,1007.69
2023-11-23T09:07:35.305Z,1007.68
2023-11-23T09:08:35.237Z,1007.70
2023-11-23T09:09:35.256Z,1007.63
2023-11-23T09:10:35.223Z,1007.70
2023-11-23T09:11:35.202Z,1007.66
2023-11-23T09:12:35.230Z,1007.73
2023-11-23T09:13:35.185Z,1007.73
2023-11-23T09:14:43.172Z,1007.66
2023-11-23T09:15:35.230Z,1007.68
2023-11-23T09:16:35.154Z,1007.58
2023-11-23T09:17:35.169Z,1007.51
2023-11-23T09:18:35.243Z,1007.62
2023-11-23T09:19:35.135Z,1007.52
2023-11-23T09:20:35.141Z,1007.48
2023-11-23T09:21:35.147Z,1007.48
2023-11-23T09:22:35.114Z,1007.53
2023-11-23T09:23:35.081Z,1007.48
2023-11-23T09:24:35.111Z,1007.41
2023-11-23T09:25:35.368Z,1007.43
2023-11-23T09:26:35.041Z,1007.33
2023-11-23T09:27:35.080Z,1007.37
2023-11-23T09:28:35.022Z,1007.36
2023-11-23T09:29:35.023Z,1007.37
2023-11-23T09:30:35.073Z,1007.30
2023-11-23T09:31:35.002Z,1007.35
2023-11-23T09:32:35.052Z,1007.31
2023-11-23T09:33:34.999Z,1007.38
2023-11-23T09:34:34.966Z,1007.38
2023-11-23T09:35:34.951Z,1007.40
2023-11-23T09:36:34.999Z,1007.40
2023-11-23T09:37:34.925Z,1007.37
2023-11-23T09:38:34.913Z,1007.29
2023-11-23T09:39:34.930Z,1007.38
2023-11-23T09:40:34.908Z,1007.33
2023-11-23T09:41:34.884Z,1007.28
2023-11-23T09:42:34.906Z,1007.23
2023-11-23T09:43:34.866Z,1007.16
2023-11-23T09:44:34.870Z,1007.14
2023-11-23T09:45:34.889Z,1007.16
2023-11-23T09:46:34.860Z,1007.10
2023-11-23T09:47:34.836Z,1007.09
2023-11-23T09:48:34.838Z,1007.07
2023-11-23T09:49:34.824Z,1006.96
2023-11-23T09:50:38.870Z,1007.04
2023-11-23T09:51:34.795Z,1007.05
2023-11-23T09:52:34.766Z,1007.00
2023-11-23T09:53:34.767Z,1007.02
2023-11-23T09:54:34.789Z,1006.99
2023-11-23T09:55:34.734Z,1006.96
2023-11-23T09:56:34.723Z,1006.98
2023-11-23T09:57:34.761Z,1006.99
2023-11-23T09:58:34.699Z,1007.00
2023-11-23T09:59:34.708Z,1006.92
2023-11-23T10:00:34.701Z,1006.90
2023-11-23T10:01:34.722Z,1006.90
2023-11-23T10:02:35.861Z,1006.82
2023-11-23T10:03:34.736Z,1006.84
2023-11-23T10:04:34.897Z,1006.87
2023-11-23T10:05:34.629Z,1006.83
2023-11-23T10:06:34.693Z,1006.87
2023-11-23T10:07:34.636Z,1006.80
2023-11-23T10:08:35.942Z,1006.73
2023-11-23T10:09:35.023Z,1006.66
2023-11-23T10:10:34.575Z,1006.66
2023-11-23T10:11:34.567Z,1006.60
2023-11-23T10:12:34.603Z,1006.62
2023-11-23T10:13:34.543Z,1006.62
2023-11-23T10:14:34.533Z,1006.67
2023-11-23T10:15:34.544Z,1006.59
2023-11-23T10:16:34.538Z,1006.57
2023-11-23T10:17:34.529Z,1006.61
2023-11-23T10:18:34.518Z,1006.52
2023-11-23T10:19:34.482Z,1006.51
2023-11-23T10:20:36.617Z,1006.41
2023-11-23T10:21:34.468Z,1006.44
2023-11-23T10:22:34.527Z,1006.39
2023-11-23T10:23:34.442Z,1006.35
2023-11-23T10:24:34.491Z,1006.28
2023-11-23T10:25:34.424Z,1006.20
2023-11-23T10:26:34.417Z,1006.24
2023-11-23T10:27:34.478Z,1006.13
2023-11-23T10:28:34.387Z,1006.18
2023-11-23T10:29:34.377Z,1006.08
2023-11-23T10:30:34.466Z,1006.11
2023-11-23T10:31:34.358Z,1006.04
2023-11-23T10:32:34.370Z,1006.15
2023-11-23T10:33:34.348Z,1006.10
2023-11-23T10:34:34.364Z,1006.03
2023-11-23T10:35:34.312Z,1006.03
2023-11-23T10:36:34.375Z,1006.01
2023-11-23T10:37:34.295Z,1006.02
2023-11-23T10:38:42.370Z,1006.02
2023-11-23T10:39:34.309Z,1005.88
2023-11-23T10:40:34.266Z,1005.77
2023-11-23T10:41:34.252Z,1005.73
2023-11-23T10:42:34.336Z,1005.79
2023-11-23T10:43:34.231Z,1005.72
2023-11-23T10:44:34.231Z,1005.76
2023-11-23T10:45:36.504Z,1005.68
2023-11-23T10:46:34.263Z,1005.62
2023-11-23T10:47:34.206Z,1005.67
2023-11-23T10:48:34.240Z,1005.61
2023-11-23T10:49:34.173Z,1005.61
2023-11-23T10:50:34.163Z,1005.62
2023-11-23T10:51:34.232Z,1005.53
2023-11-23T10:52:34.144Z,1005.60
2023-11-23T10:53:34.160Z,1005.60
2023-11-23T10:54:34.215Z,1005.58
2023-11-23T10:55:34.121Z,1005.62
2023-11-23T10:56:34.118Z,1005.59
2023-11-23T10:57:34.157Z,1005.54
2023-11-23T10:58:34.081Z,1005.49
2023-11-23T10:59:34.068Z,1005.52
2023-11-23T11:00:34.199Z,1005.52
2023-11-23T11:01:34.097Z,1005.55
2023-11-23T11:02:34.066Z,1005.53
2023-11-23T11:03:34.069Z,1005.55
2023-11-23T11:04:34.052Z,1005.50
2023-11-23T11:05:34.017Z,1005.51
2023-11-23T11:06:34.022Z,1005.50
2023-11-23T11:07:33.985Z,1005.43
2023-11-23T11:08:33.979Z,1005.44
2023-11-23T11:09:34.033Z,1005.47
2023-11-23T11:10:33.957Z,1005.49
2023-11-23T11:11:33.942Z,1005.48
2023-11-23T11:12:33.963Z,1005.44
2023-11-23T11:13:33.979Z,1005.51
2023-11-23T11:14:33.940Z,1005.56
2023-11-23T11:15:34.013Z,1005.47
2023-11-23T11:16:33.914Z,1005.53
2023-11-23T11:17:33.978Z,1005.42
2023-11-23T11:18:33.922Z,1005.54
2023-11-23T11:19:33.962Z,1005.52
2023-11-23T11:20:33.874Z,1005.49
2023-11-23T11:21:33.940Z,1005.44
2023-11-23T11:22:33.857Z,1005.40
2023-11-23T11:23:33.822Z,1005.27
2023-11-23T11:24:33.848Z,1005.31
2023-11-23T11:25:33.801Z,1005.23
2023-11-23T11:26:33.799Z,1005.24
2023-11-23T11:27:33.825Z,1005.12
2023-11-23T11:28:33.792Z,1005.21
2023-11-23T11:29:33.773Z,1005.12
2023-11-23T11:30:33.910Z,1005.12
2023-11-23T11:31:33.853Z,1005.06
2023-11-23T11:32:33.777Z,1005.01
2023-11-23T11:33:33.753Z,1004.99
2023-11-23T11:34:33.718Z,1005.04
2023-11-23T11:35:33.730Z,1004.96
2023-11-23T11:36:33.724Z,1004.98
2023-11-23T11:37:33.688Z,1004.98
2023-11-23T11:38:33.683Z,1005.02
2023-11-23T11:39:33.690Z,1004.98
2023-11-23T11:40:33.649Z,1004.98
2023-11-23T11:41:33.637Z,1005.05
2023-11-23T11:42:33.710Z,1005.00
2023-11-23T11:43:33.634Z,1005.08
2023-11-23T11:44:33.620Z,1005.07
2023-11-23T11:45:33.653Z,1005.10
2023-11-23T11:46:33.633Z,1005.01
2023-11-23T11:47:33.619Z,1005.05
2023-11-23T11:48:33.618Z,1004.94
2023-11-23T11:49:33.565Z,1004.89
2023-11-23T11:50:33.552Z,1004.94
2023-11-23T11:51:33.645Z,1004.76
2023-11-23T11:52:33.529Z,1004.75
2023-11-23T11:53:33.532Z,1004.82
2023-11-23T11:54:33.545Z,1004.66
2023-11-23T11:55:33.515Z,1004.66
2023-11-23T11:56:33.548Z,1004.60
2023-11-23T11:57:33.504Z,1004.63
2023-11-23T11:58:33.469Z,1004.66
2023-11-23T11:59:33.458Z,1004.63
2023-11-23T12:00:33.459Z,1004.68
2023-11-23T12:01:33.522Z,1004.67
2023-11-23T12:02:33.550Z,1004.53
2023-11-23T12:03:33.538Z,1004.65
2023-11-23T12:04:33.491Z,1004.49
2023-11-23T12:05:33.401Z,1004.51